sensor_id;sensor_type;location;lat;lon;timestamp;P1;durP1;ratioP1;P2;durP2;ratioP2
33327;SDS011;19692;52.998;9.116;2023-03-24T00:00:58;4.90;;;4.23;;
33327;SDS011;19692;52.998;9.116;2023-03-24T00:03:26;8.07;;;4.20;;
33327;SDS011;19692;52.998;9.116;2023-03-24T00:05:57;8.33;;;4.33;;
33327;SDS011;19692;52.998;9.116;2023-03-24T00:08:30;4.40;;;4.00;;
33327;SDS011;19692;52.998;9.116;2023-03-24T00:11:06;6.77;;;3.67;;
33327;SDS011;19692;52.998;9.116;2023-03-24T00:13:35;5.23;;;3.60;;
33327;SDS011;19692;52.998;9.116;2023-03-24T00:16:06;5.57;;;3.60;;
33327;SDS011;19692;52.998;9.116;2023-03-24T00:18:35;8.47;;;4.00;;
33327;SDS011;19692;52.998;9.116;2023-03-24T00:21:01;8.60;;;4.20;;
33327;SDS011;19692;52.998;9.116;2023-03-24T00:23:29;6.77;;;3.73;;
33327;SDS011;19692;52.998;9.116;2023-03-24T00:26:00;7.73;;;3.83;;
33327;SDS011;19692;52.998;9.116;2023-03-24T00:28:29;5.83;;;4.17;;
33327;SDS011;19692;52.998;9.116;2023-03-24T00:30:59;10.00;;;4.33;;
33327;SDS011;19692;52.998;9.116;2023-03-24T00:33:29;7.73;;;3.93;;
33327;SDS011;19692;52.998;9.116;2023-03-24T00:35:58;7.13;;;4.27;;
33327;SDS011;19692;52.998;9.116;2023-03-24T00:38:24;5.80;;;3.63;;
33327;SDS011;19692;52.998;9.116;2023-03-24T00:40:50;7.00;;;4.00;;
33327;SDS011;19692;52.998;9.116;2023-03-24T00:43:17;6.07;;;3.60;;
33327;SDS011;19692;52.998;9.116;2023-03-24T00:45:43;4.37;;;3.97;;
33327;SDS011;19692;52.998;9.116;2023-03-24T00:48:15;5.23;;;4.27;;
33327;SDS011;19692;52.998;9.116;2023-03-24T00:50:44;8.43;;;4.73;;
33327;SDS011;19692;52.998;9.116;2023-03-24T00:53:13;6.17;;;4.00;;
33327;SDS011;19692;52.998;9.116;2023-03-24T00:55:41;6.33;;;4.07;;
33327;SDS011;19692;52.998;9.116;2023-03-24T00:58:10;5.73;;;3.70;;
33327;SDS011;19692;52.998;9.116;2023-03-24T01:00:42;9.30;;;4.40;;
33327;SDS011;19692;52.998;9.116;2023-03-24T01:03:14;6.00;;;3.73;;
33327;SDS011;19692;52.998;9.116;2023-03-24T01:05:42;4.73;;;4.23;;
33327;SDS011;19692;52.998;9.116;2023-03-24T01:08:12;7.83;;;3.83;;
33327;SDS011;19692;52.998;9.116;2023-03-24T01:10:44;6.23;;;3.93;;
33327;SDS011;19692;52.998;9.116;2023-03-24T01:13:17;5.97;;;4.00;;
33327;SDS011;19692;52.998;9.116;2023-03-24T01:15:50;4.80;;;3.77;;
33327;SDS011;19692;52.998;9.116;2023-03-24T01:18:17;9.23;;;4.40;;
33327;SDS011;19692;52.998;9.116;2023-03-24T01:20:45;6.90;;;3.80;;
33327;SDS011;19692;52.998;9.116;2023-03-24T01:23:13;7.03;;;4.10;;
33327;SDS011;19692;52.998;9.116;2023-03-24T01:25:44;6.80;;;4.40;;
33327;SDS011;19692;52.998;9.116;2023-03-24T01:28:12;6.00;;;4.30;;
33327;SDS011;19692;52.998;9.116;2023-03-24T01:30:41;6.57;;;4.07;;
33327;SDS011;19692;52.998;9.116;2023-03-24T01:33:07;6.00;;;4.40;;
33327;SDS011;19692;52.998;9.116;2023-03-24T01:35:33;6.37;;;4.50;;
33327;SDS011;19692;52.998;9.116;2023-03-24T01:37:59;7.23;;;4.43;;
33327;SDS011;19692;52.998;9.116;2023-03-24T01:40:30;7.03;;;4.90;;
33327;SDS011;19692;52.998;9.116;2023-03-24T01:42:59;11.27;;;4.10;;
33327;SDS011;19692;52.998;9.116;2023-03-24T01:48:06;7.33;;;4.60;;
33327;SDS011;19692;52.998;9.116;2023-03-24T01:50:41;7.17;;;4.03;;
33327;SDS011;19692;52.998;9.116;2023-03-24T01:53:11;7.60;;;4.50;;
33327;SDS011;19692;52.998;9.116;2023-03-24T01:55:37;8.93;;;4.47;;
33327;SDS011;19692;52.998;9.116;2023-03-24T01:58:04;6.53;;;5.50;;
33327;SDS011;19692;52.998;9.116;2023-03-24T02:00:31;7.03;;;4.30;;
33327;SDS011;19692;52.998;9.116;2023-03-24T02:02:59;7.13;;;4.20;;
33327;SDS011;19692;52.998;9.116;2023-03-24T02:05:31;7.13;;;4.40;;
33327;SDS011;19692;52.998;9.116;2023-03-24T02:08:11;7.87;;;4.17;;
33327;SDS011;19692;52.998;9.116;2023-03-24T02:10:46;6.97;;;4.03;;
33327;SDS011;19692;52.998;9.116;2023-03-24T02:13:13;8.77;;;4.57;;
33327;SDS011;19692;52.998;9.116;2023-03-24T02:16:03;6.40;;;4.57;;
33327;SDS011;19692;52.998;9.116;2023-03-24T02:30:51;6.23;;;3.83;;
33327;SDS011;19692;52.998;9.116;2023-03-24T02:33:39;6.50;;;4.00;;
33327;SDS011;19692;52.998;9.116;2023-03-24T02:42:45;7.17;;;4.20;;
33327;SDS011;19692;52.998;9.116;2023-03-24T02:48:14;7.20;;;4.23;;
33327;SDS011;19692;52.998;9.116;2023-03-24T02:51:23;5.93;;;4.27;;
33327;SDS011;19692;52.998;9.116;2023-03-24T02:57:39;9.00;;;4.27;;
33327;SDS011;19692;52.998;9.116;2023-03-24T03:00:22;7.17;;;3.97;;
33327;SDS011;19692;52.998;9.116;2023-03-24T03:06:02;6.67;;;3.80;;
33327;SDS011;19692;52.998;9.116;2023-03-24T03:08:36;5.77;;;4.17;;
33327;SDS011;19692;52.998;9.116;2023-03-24T03:11:04;8.40;;;4.37;;
33327;SDS011;19692;52.998;9.116;2023-03-24T03:13:38;6.07;;;3.80;;
33327;SDS011;19692;52.998;9.116;2023-03-24T03:16:17;6.10;;;4.27;;
33327;SDS011;19692;52.998;9.116;2023-03-24T03:18:59;5.73;;;4.60;;
33327;SDS011;19692;52.998;9.116;2023-03-24T03:21:47;5.43;;;4.03;;
33327;SDS011;19692;52.998;9.116;2023-03-24T03:24:18;5.37;;;3.93;;
33327;SDS011;19692;52.998;9.116;2023-03-24T03:26:52;6.23;;;4.33;;
33327;SDS011;19692;52.998;9.116;2023-03-24T03:29:23;5.77;;;4.47;;
33327;SDS011;19692;52.998;9.116;2023-03-24T03:31:57;4.63;;;3.90;;
33327;SDS011;19692;52.998;9.116;2023-03-24T03:37:36;6.93;;;4.00;;
33327;SDS011;19692;52.998;9.116;2023-03-24T03:40:22;3.87;;;3.57;;
33327;SDS011;19692;52.998;9.116;2023-03-24T03:42:57;7.17;;;4.23;;
33327;SDS011;19692;52.998;9.116;2023-03-24T03:45:23;5.37;;;4.17;;
33327;SDS011;19692;52.998;9.116;2023-03-24T03:47:48;4.87;;;3.97;;
33327;SDS011;19692;52.998;9.116;2023-03-24T03:50:15;5.63;;;4.27;;
33327;SDS011;19692;52.998;9.116;2023-03-24T03:52:40;3.87;;;3.47;;
33327;SDS011;19692;52.998;9.116;2023-03-24T03:55:08;7.37;;;3.50;;
33327;SDS011;19692;52.998;9.116;2023-03-24T03:57:35;4.10;;;3.70;;
33327;SDS011;19692;52.998;9.116;2023-03-24T04:00:02;5.47;;;4.13;;
33327;SDS011;19692;52.998;9.116;2023-03-24T04:05:57;7.03;;;4.20;;
33327;SDS011;19692;52.998;9.116;2023-03-24T04:08:46;6.63;;;4.77;;
33327;SDS011;19692;52.998;9.116;2023-03-24T04:20:02;5.53;;;4.07;;
33327;SDS011;19692;52.998;9.116;2023-03-24T04:26:08;5.33;;;4.30;;
33327;SDS011;19692;52.998;9.116;2023-03-24T04:29:29;4.57;;;4.03;;
33327;SDS011;19692;52.998;9.116;2023-03-24T04:32:21;5.20;;;4.20;;
33327;SDS011;19692;52.998;9.116;2023-03-24T04:35:41;6.70;;;4.07;;
33327;SDS011;19692;52.998;9.116;2023-03-24T04:38:18;4.60;;;4.20;;
33327;SDS011;19692;52.998;9.116;2023-03-24T04:40:50;4.93;;;4.00;;
33327;SDS011;19692;52.998;9.116;2023-03-24T04:43:20;5.47;;;4.47;;
33327;SDS011;19692;52.998;9.116;2023-03-24T04:45:51;5.33;;;4.00;;
33327;SDS011;19692;52.998;9.116;2023-03-24T04:48:21;6.70;;;5.20;;
33327;SDS011;19692;52.998;9.116;2023-03-24T04:50:56;7.10;;;4.10;;
33327;SDS011;19692;52.998;9.116;2023-03-24T04:53:24;5.27;;;4.87;;
33327;SDS011;19692;52.998;9.116;2023-03-24T04:56:02;5.00;;;4.13;;
33327;SDS011;19692;52.998;9.116;2023-03-24T04:58:54;5.73;;;4.40;;
33327;SDS011;19692;52.998;9.116;2023-03-24T05:01:22;4.90;;;4.40;;
33327;SDS011;19692;52.998;9.116;2023-03-24T05:03:54;4.97;;;4.47;;
33327;SDS011;19692;52.998;9.116;2023-03-24T05:06:22;4.40;;;3.83;;
33327;SDS011;19692;52.998;9.116;2023-03-24T05:08:48;5.13;;;4.73;;
33327;SDS011;19692;52.998;9.116;2023-03-24T05:11:16;4.03;;;3.63;;
33327;SDS011;19692;52.998;9.116;2023-03-24T05:13:44;4.27;;;3.87;;
33327;SDS011;19692;52.998;9.116;2023-03-24T05:16:11;4.37;;;3.97;;
33327;SDS011;19692;52.998;9.116;2023-03-24T05:18:37;5.10;;;4.20;;
33327;SDS011;19692;52.998;9.116;2023-03-24T05:21:03;5.40;;;4.07;;
33327;SDS011;19692;52.998;9.116;2023-03-24T05:23:30;4.27;;;3.87;;
33327;SDS011;19692;52.998;9.116;2023-03-24T05:25:55;5.73;;;4.03;;
33327;SDS011;19692;52.998;9.116;2023-03-24T05:28:21;4.63;;;4.23;;
33327;SDS011;19692;52.998;9.116;2023-03-24T05:30:47;4.30;;;3.87;;
33327;SDS011;19692;52.998;9.116;2023-03-24T05:33:13;7.03;;;4.37;;
33327;SDS011;19692;52.998;9.116;2023-03-24T05:35:38;5.30;;;4.70;;
33327;SDS011;19692;52.998;9.116;2023-03-24T05:38:04;5.97;;;4.50;;
33327;SDS011;19692;52.998;9.116;2023-03-24T05:40:30;5.03;;;4.50;;
33327;SDS011;19692;52.998;9.116;2023-03-24T05:42:55;4.67;;;4.27;;
33327;SDS011;19692;52.998;9.116;2023-03-24T05:45:21;4.87;;;4.47;;
33327;SDS011;19692;52.998;9.116;2023-03-24T05:47:49;5.13;;;4.30;;
33327;SDS011;19692;52.998;9.116;2023-03-24T05:50:15;5.87;;;5.13;;
33327;SDS011;19692;52.998;9.116;2023-03-24T05:52:41;5.20;;;4.80;;
33327;SDS011;19692;52.998;9.116;2023-03-24T05:55:07;5.57;;;5.00;;
33327;SDS011;19692;52.998;9.116;2023-03-24T05:57:33;5.07;;;4.57;;
33327;SDS011;19692;52.998;9.116;2023-03-24T06:00:00;5.33;;;4.83;;
33327;SDS011;19692;52.998;9.116;2023-03-24T06:02:39;5.47;;;4.90;;
33327;SDS011;19692;52.998;9.116;2023-03-24T06:05:05;5.30;;;4.80;;
33327;SDS011;19692;52.998;9.116;2023-03-24T06:07:32;5.80;;;4.47;;
33327;SDS011;19692;52.998;9.116;2023-03-24T06:09:58;6.90;;;5.20;;
33327;SDS011;19692;52.998;9.116;2023-03-24T06:12:27;5.27;;;4.80;;
33327;SDS011;19692;52.998;9.116;2023-03-24T06:14:55;6.53;;;4.83;;
33327;SDS011;19692;52.998;9.116;2023-03-24T06:17:22;5.40;;;4.90;;
33327;SDS011;19692;52.998;9.116;2023-03-24T06:19:49;5.10;;;4.60;;
33327;SDS011;19692;52.998;9.116;2023-03-24T06:22:18;5.40;;;4.90;;
33327;SDS011;19692;52.998;9.116;2023-03-24T06:24:45;5.93;;;5.23;;
33327;SDS011;19692;52.998;9.116;2023-03-24T06:27:14;5.37;;;4.13;;
33327;SDS011;19692;52.998;9.116;2023-03-24T06:29:42;4.30;;;3.90;;
33327;SDS011;19692;52.998;9.116;2023-03-24T06:32:09;4.90;;;4.57;;
33327;SDS011;19692;52.998;9.116;2023-03-24T06:34:35;6.57;;;4.73;;
33327;SDS011;19692;52.998;9.116;2023-03-24T06:37:02;4.60;;;4.20;;
33327;SDS011;19692;52.998;9.116;2023-03-24T06:39:29;3.60;;;3.30;;
33327;SDS011;19692;52.998;9.116;2023-03-24T06:41:55;3.93;;;3.20;;
33327;SDS011;19692;52.998;9.116;2023-03-24T06:44:20;3.63;;;2.93;;
33327;SDS011;19692;52.998;9.116;2023-03-24T06:46:46;3.10;;;2.80;;
33327;SDS011;19692;52.998;9.116;2023-03-24T06:49:12;3.37;;;3.03;;
33327;SDS011;19692;52.998;9.116;2023-03-24T06:51:37;4.47;;;2.10;;
33327;SDS011;19692;52.998;9.116;2023-03-24T06:54:03;2.30;;;2.00;;
33327;SDS011;19692;52.998;9.116;2023-03-24T06:56:29;2.83;;;2.30;;
33327;SDS011;19692;52.998;9.116;2023-03-24T06:58:55;2.92;;;1.80;;
33327;SDS011;19692;52.998;9.116;2023-03-24T07:01:21;3.97;;;2.10;;
33327;SDS011;19692;52.998;9.116;2023-03-24T07:03:48;4.33;;;1.80;;
33327;SDS011;19692;52.998;9.116;2023-03-24T07:06:14;3.23;;;2.00;;
33327;SDS011;19692;52.998;9.116;2023-03-24T07:08:40;3.30;;;2.00;;
33327;SDS011;19692;52.998;9.116;2023-03-24T07:11:06;4.23;;;1.90;;
33327;SDS011;19692;52.998;9.116;2023-03-24T07:13:33;3.37;;;1.90;;
33327;SDS011;19692;52.998;9.116;2023-03-24T07:15:59;4.00;;;2.10;;
33327;SDS011;19692;52.998;9.116;2023-03-24T07:18:25;4.77;;;2.50;;
33327;SDS011;19692;52.998;9.116;2023-03-24T07:20:51;4.90;;;2.47;;
33327;SDS011;19692;52.998;9.116;2023-03-24T07:23:17;2.53;;;1.93;;
33327;SDS011;19692;52.998;9.116;2023-03-24T07:25:42;6.83;;;2.70;;
33327;SDS011;19692;52.998;9.116;2023-03-24T07:28:08;5.43;;;3.00;;
33327;SDS011;19692;52.998;9.116;2023-03-24T07:30:34;7.00;;;2.40;;
33327;SDS011;19692;52.998;9.116;2023-03-24T07:33:01;4.70;;;2.10;;
33327;SDS011;19692;52.998;9.116;2023-03-24T07:35:28;3.57;;;2.30;;
33327;SDS011;19692;52.998;9.116;2023-03-24T07:37:58;6.47;;;2.33;;
33327;SDS011;19692;52.998;9.116;2023-03-24T07:40:25;4.30;;;2.63;;
33327;SDS011;19692;52.998;9.116;2023-03-24T07:42:50;4.30;;;2.33;;
33327;SDS011;19692;52.998;9.116;2023-03-24T07:45:16;5.67;;;2.57;;
33327;SDS011;19692;52.998;9.116;2023-03-24T07:47:43;5.00;;;2.63;;
33327;SDS011;19692;52.998;9.116;2023-03-24T07:50:10;5.73;;;2.30;;
33327;SDS011;19692;52.998;9.116;2023-03-24T07:52:40;3.83;;;2.53;;
33327;SDS011;19692;52.998;9.116;2023-03-24T07:55:11;5.47;;;2.23;;
33327;SDS011;19692;52.998;9.116;2023-03-24T07:57:37;6.10;;;3.23;;
33327;SDS011;19692;52.998;9.116;2023-03-24T08:00:05;4.33;;;2.60;;
33327;SDS011;19692;52.998;9.116;2023-03-24T08:02:42;6.27;;;2.40;;
33327;SDS011;19692;52.998;9.116;2023-03-24T08:05:10;7.07;;;3.53;;
33327;SDS011;19692;52.998;9.116;2023-03-24T08:07:39;7.90;;;3.20;;
33327;SDS011;19692;52.998;9.116;2023-03-24T08:10:07;6.77;;;3.47;;
33327;SDS011;19692;52.998;9.116;2023-03-24T08:12:35;8.07;;;2.60;;
33327;SDS011;19692;52.998;9.116;2023-03-24T08:15:01;5.70;;;2.40;;
33327;SDS011;19692;52.998;9.116;2023-03-24T08:17:27;6.97;;;2.70;;
33327;SDS011;19692;52.998;9.116;2023-03-24T08:19:53;7.67;;;2.73;;
33327;SDS011;19692;52.998;9.116;2023-03-24T08:22:19;4.77;;;2.57;;
33327;SDS011;19692;52.998;9.116;2023-03-24T08:24:45;4.97;;;2.57;;
33327;SDS011;19692;52.998;9.116;2023-03-24T08:27:10;6.53;;;2.43;;
33327;SDS011;19692;52.998;9.116;2023-03-24T08:29:36;6.57;;;3.17;;
33327;SDS011;19692;52.998;9.116;2023-03-24T08:32:02;6.30;;;2.70;;
33327;SDS011;19692;52.998;9.116;2023-03-24T08:34:28;7.63;;;2.67;;
33327;SDS011;19692;52.998;9.116;2023-03-24T08:36:54;6.10;;;2.53;;
33327;SDS011;19692;52.998;9.116;2023-03-24T08:39:20;8.40;;;2.83;;
33327;SDS011;19692;52.998;9.116;2023-03-24T08:41:48;8.20;;;2.93;;
33327;SDS011;19692;52.998;9.116;2023-03-24T08:44:14;6.57;;;2.37;;
33327;SDS011;19692;52.998;9.116;2023-03-24T08:46:40;7.40;;;3.50;;
33327;SDS011;19692;52.998;9.116;2023-03-24T08:49:07;5.53;;;2.60;;
33327;SDS011;19692;52.998;9.116;2023-03-24T08:51:33;9.03;;;3.00;;
33327;SDS011;19692;52.998;9.116;2023-03-24T08:53:59;7.13;;;2.60;;
33327;SDS011;19692;52.998;9.116;2023-03-24T08:56:27;6.13;;;2.63;;
33327;SDS011;19692;52.998;9.116;2023-03-24T08:58:53;4.90;;;3.00;;
33327;SDS011;19692;52.998;9.116;2023-03-24T09:01:19;5.23;;;2.47;;
33327;SDS011;19692;52.998;9.116;2023-03-24T09:03:46;7.90;;;3.27;;
33327;SDS011;19692;52.998;9.116;2023-03-24T09:06:12;5.17;;;2.30;;
33327;SDS011;19692;52.998;9.116;2023-03-24T09:08:38;6.87;;;2.87;;
33327;SDS011;19692;52.998;9.116;2023-03-24T09:11:04;7.10;;;3.03;;
33327;SDS011;19692;52.998;9.116;2023-03-24T09:13:31;9.33;;;3.07;;
33327;SDS011;19692;52.998;9.116;2023-03-24T09:15:58;8.67;;;3.30;;
33327;SDS011;19692;52.998;9.116;2023-03-24T09:18:26;7.70;;;3.17;;
33327;SDS011;19692;52.998;9.116;2023-03-24T09:20:52;8.17;;;2.97;;
33327;SDS011;19692;52.998;9.116;2023-03-24T09:23:19;7.93;;;3.00;;
33327;SDS011;19692;52.998;9.116;2023-03-24T09:25:47;7.10;;;3.00;;
33327;SDS011;19692;52.998;9.116;2023-03-24T09:28:18;7.03;;;2.83;;
33327;SDS011;19692;52.998;9.116;2023-03-24T09:30:45;6.03;;;2.30;;
33327;SDS011;19692;52.998;9.116;2023-03-24T09:33:11;9.33;;;4.00;;
33327;SDS011;19692;52.998;9.116;2023-03-24T09:35:36;7.43;;;2.87;;
33327;SDS011;19692;52.998;9.116;2023-03-24T09:38:02;9.17;;;3.63;;
33327;SDS011;19692;52.998;9.116;2023-03-24T09:40:29;8.60;;;3.07;;
33327;SDS011;19692;52.998;9.116;2023-03-24T09:43:02;8.83;;;2.80;;
33327;SDS011;19692;52.998;9.116;2023-03-24T09:45:33;8.83;;;3.20;;
33327;SDS011;19692;52.998;9.116;2023-03-24T09:48:15;7.53;;;3.20;;
33327;SDS011;19692;52.998;9.116;2023-03-24T09:51:02;7.83;;;3.27;;
33327;SDS011;19692;52.998;9.116;2023-03-24T09:57:02;7.27;;;3.33;;
33327;SDS011;19692;52.998;9.116;2023-03-24T10:01:59;8.23;;;2.63;;
33327;SDS011;19692;52.998;9.116;2023-03-24T10:04:25;8.27;;;3.20;;
33327;SDS011;19692;52.998;9.116;2023-03-24T10:07:06;10.17;;;2.70;;
33327;SDS011;19692;52.998;9.116;2023-03-24T10:09:50;9.10;;;3.87;;
33327;SDS011;19692;52.998;9.116;2023-03-24T10:12:30;8.77;;;2.70;;
33327;SDS011;19692;52.998;9.116;2023-03-24T10:17:56;9.07;;;3.40;;
33327;SDS011;19692;52.998;9.116;2023-03-24T10:20:38;10.40;;;3.40;;
33327;SDS011;19692;52.998;9.116;2023-03-24T10:23:39;9.07;;;3.47;;
33327;SDS011;19692;52.998;9.116;2023-03-24T10:32:17;9.53;;;2.80;;
33327;SDS011;19692;52.998;9.116;2023-03-24T10:34:56;8.37;;;3.10;;
33327;SDS011;19692;52.998;9.116;2023-03-24T10:37:31;10.27;;;3.10;;
33327;SDS011;19692;52.998;9.116;2023-03-24T10:39:58;9.43;;;3.20;;
33327;SDS011;19692;52.998;9.116;2023-03-24T10:42:27;10.03;;;3.30;;
33327;SDS011;19692;52.998;9.116;2023-03-24T10:44:57;10.20;;;3.40;;
33327;SDS011;19692;52.998;9.116;2023-03-24T10:47:24;7.67;;;2.80;;
33327;SDS011;19692;52.998;9.116;2023-03-24T10:52:26;9.20;;;3.60;;
33327;SDS011;19692;52.998;9.116;2023-03-24T10:54:56;9.30;;;3.27;;
33327;SDS011;19692;52.998;9.116;2023-03-24T10:57:28;8.43;;;3.10;;
33327;SDS011;19692;52.998;9.116;2023-03-24T11:02:38;8.43;;;3.13;;
33327;SDS011;19692;52.998;9.116;2023-03-24T11:07:47;10.30;;;3.23;;
33327;SDS011;19692;52.998;9.116;2023-03-24T11:10:16;10.30;;;3.07;;
33327;SDS011;19692;52.998;9.116;2023-03-24T11:17:48;10.77;;;3.67;;
33327;SDS011;19692;52.998;9.116;2023-03-24T11:20:29;7.67;;;3.40;;
33327;SDS011;19692;52.998;9.116;2023-03-24T11:23:02;8.37;;;3.53;;
33327;SDS011;19692;52.998;9.116;2023-03-24T11:25:37;11.83;;;3.77;;
33327;SDS011;19692;52.998;9.116;2023-03-24T11:28:06;8.83;;;3.83;;
33327;SDS011;19692;52.998;9.116;2023-03-24T11:30:43;11.60;;;3.13;;
33327;SDS011;19692;52.998;9.116;2023-03-24T11:35:57;6.93;;;3.53;;
33327;SDS011;19692;52.998;9.116;2023-03-24T11:38:28;8.00;;;3.23;;
33327;SDS011;19692;52.998;9.116;2023-03-24T11:40:58;8.37;;;3.37;;
33327;SDS011;19692;52.998;9.116;2023-03-24T11:43:29;7.93;;;2.97;;
33327;SDS011;19692;52.998;9.116;2023-03-24T11:45:57;8.93;;;3.20;;
33327;SDS011;19692;52.998;9.116;2023-03-24T11:48:30;9.33;;;3.70;;
33327;SDS011;19692;52.998;9.116;2023-03-24T11:51:36;5.70;;;3.13;;
33327;SDS011;19692;52.998;9.116;2023-03-24T11:54:05;9.93;;;3.63;;
33327;SDS011;19692;52.998;9.116;2023-03-24T11:56:56;8.07;;;3.27;;
33327;SDS011;19692;52.998;9.116;2023-03-24T12:02:37;8.93;;;3.60;;
33327;SDS011;19692;52.998;9.116;2023-03-24T12:05:29;10.87;;;4.00;;
33327;SDS011;19692;52.998;9.116;2023-03-24T12:08:15;9.93;;;3.40;;
33327;SDS011;19692;52.998;9.116;2023-03-24T12:11:31;9.43;;;3.33;;
33327;SDS011;19692;52.998;9.116;2023-03-24T12:13:57;7.47;;;3.37;;
33327;SDS011;19692;52.998;9.116;2023-03-24T12:19:24;8.90;;;3.23;;
33327;SDS011;19692;52.998;9.116;2023-03-24T12:22:13;6.83;;;3.00;;
33327;SDS011;19692;52.998;9.116;2023-03-24T12:28:02;7.57;;;3.30;;
33327;SDS011;19692;52.998;9.116;2023-03-24T12:33:56;9.37;;;3.50;;
33327;SDS011;19692;52.998;9.116;2023-03-24T12:42:38;6.53;;;2.60;;
33327;SDS011;19692;52.998;9.116;2023-03-24T12:48:31;10.60;;;3.63;;
33327;SDS011;19692;52.998;9.116;2023-03-24T12:55:12;11.37;;;3.30;;
33327;SDS011;19692;52.998;9.116;2023-03-24T12:57:20;8.17;;;2.77;;
33327;SDS011;19692;52.998;9.116;2023-03-24T12:59:56;8.20;;;3.10;;
33327;SDS011;19692;52.998;9.116;2023-03-24T13:05:38;7.00;;;3.17;;
33327;SDS011;19692;52.998;9.116;2023-03-24T13:08:13;6.60;;;3.27;;
33327;SDS011;19692;52.998;9.116;2023-03-24T13:10:47;6.50;;;2.97;;
33327;SDS011;19692;52.998;9.116;2023-03-24T13:13:22;8.77;;;3.03;;
33327;SDS011;19692;52.998;9.116;2023-03-24T13:15:56;10.03;;;3.40;;
33327;SDS011;19692;52.998;9.116;2023-03-24T13:21:20;7.10;;;3.77;;
33327;SDS011;19692;52.998;9.116;2023-03-24T13:24:11;7.07;;;2.83;;
33327;SDS011;19692;52.998;9.116;2023-03-24T13:32:33;8.90;;;3.03;;
33327;SDS011;19692;52.998;9.116;2023-03-24T13:36:10;6.77;;;3.30;;
33327;SDS011;19692;52.998;9.116;2023-03-24T13:39:00;4.73;;;2.43;;
33327;SDS011;19692;52.998;9.116;2023-03-24T13:41:36;6.90;;;3.80;;
33327;SDS011;19692;52.998;9.116;2023-03-24T13:44:06;8.03;;;3.23;;
33327;SDS011;19692;52.998;9.116;2023-03-24T13:46:41;6.80;;;3.67;;
33327;SDS011;19692;52.998;9.116;2023-03-24T13:49:11;6.53;;;2.60;;
33327;SDS011;19692;52.998;9.116;2023-03-24T13:51:40;9.23;;;2.73;;
33327;SDS011;19692;52.998;9.116;2023-03-24T13:56:54;9.17;;;3.20;;
33327;SDS011;19692;52.998;9.116;2023-03-24T14:02:43;8.67;;;4.00;;
33327;SDS011;19692;52.998;9.116;2023-03-24T14:07:47;9.73;;;3.20;;
33327;SDS011;19692;52.998;9.116;2023-03-24T14:15:27;8.50;;;2.97;;
33327;SDS011;19692;52.998;9.116;2023-03-24T14:18:13;5.20;;;2.67;;
33327;SDS011;19692;52.998;9.116;2023-03-24T14:23:41;5.10;;;2.23;;
33327;SDS011;19692;52.998;9.116;2023-03-24T14:26:14;6.20;;;2.70;;
33327;SDS011;19692;52.998;9.116;2023-03-24T14:28:55;7.53;;;2.67;;
33327;SDS011;19692;52.998;9.116;2023-03-24T14:31:22;5.60;;;2.70;;
33327;SDS011;19692;52.998;9.116;2023-03-24T14:36:35;6.10;;;2.70;;
33327;SDS011;19692;52.998;9.116;2023-03-24T14:39:25;6.67;;;2.50;;
33327;SDS011;19692;52.998;9.116;2023-03-24T14:42:52;7.20;;;2.70;;
33327;SDS011;19692;52.998;9.116;2023-03-24T14:44:57;10.73;;;2.80;;
33327;SDS011;19692;52.998;9.116;2023-03-24T14:47:25;7.63;;;2.40;;
33327;SDS011;19692;52.998;9.116;2023-03-24T14:49:56;7.33;;;3.07;;
33327;SDS011;19692;52.998;9.116;2023-03-24T14:52:26;6.67;;;2.57;;
33327;SDS011;19692;52.998;9.116;2023-03-24T14:55:01;9.13;;;3.23;;
33327;SDS011;19692;52.998;9.116;2023-03-24T14:57:38;6.20;;;2.63;;
33327;SDS011;19692;52.998;9.116;2023-03-24T15:00:09;6.90;;;2.80;;
33327;SDS011;19692;52.998;9.116;2023-03-24T15:02:54;8.07;;;2.47;;
33327;SDS011;19692;52.998;9.116;2023-03-24T15:05:47;5.57;;;2.80;;
33327;SDS011;19692;52.998;9.116;2023-03-24T15:08:19;5.10;;;2.90;;
33327;SDS011;19692;52.998;9.116;2023-03-24T15:10:53;7.80;;;3.83;;
33327;SDS011;19692;52.998;9.116;2023-03-24T15:16:00;6.20;;;3.07;;
33327;SDS011;19692;52.998;9.116;2023-03-24T15:18:51;6.67;;;3.00;;
33327;SDS011;19692;52.998;9.116;2023-03-24T15:21:47;5.77;;;2.73;;
33327;SDS011;19692;52.998;9.116;2023-03-24T15:26:52;3.93;;;2.83;;
33327;SDS011;19692;52.998;9.116;2023-03-24T15:29:37;6.50;;;3.00;;
33327;SDS011;19692;52.998;9.116;2023-03-24T15:32:05;5.60;;;3.00;;
33327;SDS011;19692;52.998;9.116;2023-03-24T15:34:45;5.47;;;3.10;;
33327;SDS011;19692;52.998;9.116;2023-03-24T15:39:58;6.63;;;3.10;;
33327;SDS011;19692;52.998;9.116;2023-03-24T15:42:24;6.83;;;3.00;;
33327;SDS011;19692;52.998;9.116;2023-03-24T15:44:50;4.93;;;2.60;;
33327;SDS011;19692;52.998;9.116;2023-03-24T15:47:22;5.87;;;3.07;;
33327;SDS011;19692;52.998;9.116;2023-03-24T15:52:33;5.73;;;2.83;;
33327;SDS011;19692;52.998;9.116;2023-03-24T15:55:06;6.03;;;2.60;;
33327;SDS011;19692;52.998;9.116;2023-03-24T15:57:46;4.63;;;2.20;;
33327;SDS011;19692;52.998;9.116;2023-03-24T16:00:13;4.23;;;1.90;;
33327;SDS011;19692;52.998;9.116;2023-03-24T16:02:47;4.40;;;2.33;;
33327;SDS011;19692;52.998;9.116;2023-03-24T16:05:23;3.60;;;2.00;;
33327;SDS011;19692;52.998;9.116;2023-03-24T16:10:33;5.20;;;1.93;;
33327;SDS011;19692;52.998;9.116;2023-03-24T16:13:19;4.27;;;2.30;;
33327;SDS011;19692;52.998;9.116;2023-03-24T16:15:48;3.97;;;2.00;;
33327;SDS011;19692;52.998;9.116;2023-03-24T16:18:36;4.77;;;2.50;;
33327;SDS011;19692;52.998;9.116;2023-03-24T16:24:00;4.60;;;2.57;;
33327;SDS011;19692;52.998;9.116;2023-03-24T16:26:30;6.83;;;2.30;;
33327;SDS011;19692;52.998;9.116;2023-03-24T16:31:43;9.33;;;3.47;;
33327;SDS011;19692;52.998;9.116;2023-03-24T16:34:13;5.17;;;2.77;;
33327;SDS011;19692;52.998;9.116;2023-03-24T16:36:45;6.67;;;3.37;;
33327;SDS011;19692;52.998;9.116;2023-03-24T16:39:13;4.07;;;2.47;;
33327;SDS011;19692;52.998;9.116;2023-03-24T16:41:41;3.83;;;2.30;;
33327;SDS011;19692;52.998;9.116;2023-03-24T16:44:07;5.53;;;2.70;;
33327;SDS011;19692;52.998;9.116;2023-03-24T16:46:33;7.00;;;2.73;;
33327;SDS011;19692;52.998;9.116;2023-03-24T16:48:59;6.83;;;2.57;;
33327;SDS011;19692;52.998;9.116;2023-03-24T16:51:27;6.57;;;2.33;;
33327;SDS011;19692;52.998;9.116;2023-03-24T16:53:53;4.07;;;2.20;;
33327;SDS011;19692;52.998;9.116;2023-03-24T16:56:20;3.57;;;2.10;;
33327;SDS011;19692;52.998;9.116;2023-03-24T16:58:47;3.53;;;2.30;;
33327;SDS011;19692;52.998;9.116;2023-03-24T17:03:50;2.13;;;1.93;;
33327;SDS011;19692;52.998;9.116;2023-03-24T17:06:21;3.53;;;1.90;;
33327;SDS011;19692;52.998;9.116;2023-03-24T17:08:48;3.77;;;1.80;;
33327;SDS011;19692;52.998;9.116;2023-03-24T17:11:15;2.43;;;1.60;;
33327;SDS011;19692;52.998;9.116;2023-03-24T17:13:44;3.60;;;3.10;;
33327;SDS011;19692;52.998;9.116;2023-03-24T17:16:10;3.20;;;2.63;;
33327;SDS011;19692;52.998;9.116;2023-03-24T17:18:36;3.73;;;1.90;;
33327;SDS011;19692;52.998;9.116;2023-03-24T17:21:05;4.03;;;2.00;;
33327;SDS011;19692;52.998;9.116;2023-03-24T17:23:40;3.70;;;1.80;;
33327;SDS011;19692;52.998;9.116;2023-03-24T17:26:07;3.53;;;2.00;;
33327;SDS011;19692;52.998;9.116;2023-03-24T17:28:33;3.37;;;3.07;;
33327;SDS011;19692;52.998;9.116;2023-03-24T17:31:00;2.33;;;1.83;;
33327;SDS011;19692;52.998;9.116;2023-03-24T17:33:25;3.13;;;2.20;;
33327;SDS011;19692;52.998;9.116;2023-03-24T17:35:52;2.13;;;1.93;;
33327;SDS011;19692;52.998;9.116;2023-03-24T17:38:18;2.30;;;1.97;;
33327;SDS011;19692;52.998;9.116;2023-03-24T17:40:44;3.73;;;2.07;;
33327;SDS011;19692;52.998;9.116;2023-03-24T17:43:10;4.13;;;2.10;;
33327;SDS011;19692;52.998;9.116;2023-03-24T17:45:38;3.23;;;2.03;;
33327;SDS011;19692;52.998;9.116;2023-03-24T17:48:05;3.63;;;2.00;;
33327;SDS011;19692;52.998;9.116;2023-03-24T17:50:31;4.47;;;2.10;;
33327;SDS011;19692;52.998;9.116;2023-03-24T17:52:57;5.43;;;2.23;;